Cornell, Iowa
Current Conditions -  °F | °C
As of 10:53 AM on Sunday 21 Dec 2014 (Local Time) from KSPW Reporting Station
Haze Haze  
Wind Chill: 28°   Ceiling: 300
Heat Index: 37°   Visibility: 1.2mi
Dew Point: 36°   Wind: 15mph
Humidity: 96%   Direction: 190°S
Pressure: 29.79"   Gusts: NA
Location:  42.9244°N, 95.1316°W
Report Text: KSPW 211653Z AUTO 19013KT 1 1/4SM BR OVC003 03/02 A2979 RMK AO2 SLP099 T00280022 TSNO
Loading
Personal Weather Stations






























Interactive Weather Map New forecast layout! Learn more

10-Day Weather Forecast

Advertisements
Track Severe Weather on mobile